Time;durP1;ratioP1;P1;durP2;ratioP2;P2;SDS_P1;SDS_P2;PMS_P1;PMS_P2;Temp;Humidity;BMP_temperature;BMP_pressure;BME280_temperature;BME280_humidity;BME280_pressure;Samples;Min_cycle;Max_cycle;Signal;HPM_P1;HPM_P2
2022/04/17 00:02:02;;;;;;;70.77;45.33;;;4.90;67.90;;;;;;4977104;28;20659;-87
2022/04/17 00:04:28;;;;;;;68.00;46.13;;;4.90;67.90;;;;;;4995617;28;20184;-87
2022/04/17 00:06:53;;;;;;;67.77;46.50;;;4.80;68.00;;;;;;4995081;28;20186;-87
2022/04/17 00:09:19;;;;;;;63.60;45.07;;;4.80;68.10;;;;;;4978063;28;20235;-87
2022/04/17 00:11:45;;;;;;;64.37;46.07;;;4.80;68.20;;;;;;4977955;28;20265;-87
2022/04/17 00:14:11;;;;;;;71.13;46.80;;;4.70;68.60;;;;;;4978125;28;20176;-88
2022/04/17 00:16:37;;;;;;;69.57;46.27;;;4.60;68.80;;;;;;4978077;28;20269;-88
2022/04/17 00:19:02;;;;;;;66.67;45.97;;;4.60;69.20;;;;;;4977899;28;20603;-88
2022/04/17 00:21:28;;;;;;;69.03;48.03;;;4.60;69.50;;;;;;4978006;28;20240;-88
2022/04/17 00:23:53;;;;;;;66.30;44.80;;;4.50;69.70;;;;;;4995324;28;20186;-88
2022/04/17 00:26:19;;;;;;;62.83;44.03;;;4.50;69.90;;;;;;4977827;28;20183;-88
2022/04/17 00:28:45;;;;;;;64.10;46.37;;;4.40;70.00;;;;;;4977823;28;20198;-88
2022/04/17 00:31:10;;;;;;;66.80;44.97;;;4.40;70.00;;;;;;4995402;28;20672;-88
2022/04/17 00:33:36;;;;;;;62.90;43.40;;;4.30;70.20;;;;;;4977730;28;20178;-88
2022/04/17 00:36:02;;;;;;;67.23;44.73;;;4.30;70.40;;;;;;4977641;28;20179;-88
2022/04/17 00:38:27;;;;;;;61.80;44.37;;;4.30;70.20;;;;;;4977567;28;20181;-88
2022/04/17 00:40:56;;;;;;;68.97;47.60;;;4.30;70.10;;;;;;4977623;28;20184;-87
2022/04/17 00:43:34;;;;;;;70.40;47.17;;;4.20;70.40;;;;;;4994901;28;20176;-87
2022/04/17 00:46:00;;;;;;;70.23;47.67;;;4.20;70.40;;;;;;4993800;28;20225;-88
2022/04/17 00:48:26;;;;;;;70.33;48.90;;;4.10;70.30;;;;;;4977291;28;20176;-88
2022/04/17 00:50:55;;;;;;;69.87;47.20;;;4.10;70.40;;;;;;4977533;28;20290;-88
2022/04/17 00:53:24;;;;;;;70.53;48.93;;;4.10;70.30;;;;;;4977451;28;20174;-88
2022/04/17 00:55:50;;;;;;;69.40;47.93;;;4.10;70.10;;;;;;4994801;28;20175;-88
2022/04/17 00:58:16;;;;;;;71.50;50.73;;;4.00;70.10;;;;;;4994662;28;20546;-88
2022/04/17 01:00:43;;;;;;;73.00;53.10;;;3.90;70.30;;;;;;4977303;28;20653;-88
2022/04/17 01:03:10;;;;;;;71.17;49.40;;;3.90;70.80;;;;;;4977190;28;20181;-88
2022/04/17 01:05:39;;;;;;;72.57;51.27;;;3.90;70.90;;;;;;4977089;28;20178;-87
2022/04/17 01:08:06;;;;;;;75.90;49.63;;;3.80;70.90;;;;;;4977161;28;20178;-88
2022/04/17 01:10:32;;;;;;;71.53;50.33;;;3.80;70.80;;;;;;4977054;28;20722;-88
2022/04/17 01:12:59;;;;;;;70.07;50.83;;;3.70;70.80;;;;;;4977031;28;20203;-88
2022/04/17 01:15:25;;;;;;;75.60;50.87;;;3.70;70.90;;;;;;4977998;28;20233;-88
2022/04/17 01:17:50;;;;;;;72.10;51.13;;;3.60;71.10;;;;;;4976241;28;20653;-88
2022/04/17 01:20:17;;;;;;;76.47;52.17;;;3.60;71.10;;;;;;4994377;28;20194;-88
2022/04/17 01:22:50;;;;;;;75.13;54.13;;;3.60;71.00;;;;;;4976827;28;20667;-88
2022/04/17 01:28:03;;;;;;;76.03;52.97;;;3.50;72.30;;;;;;4994852;28;20173;-88
2022/04/17 01:30:29;;;;;;;70.83;50.90;;;3.40;72.60;;;;;;4976683;28;20257;-88
2022/04/17 01:32:54;;;;;;;79.30;52.47;;;3.40;72.40;;;;;;4976813;28;20648;-88
2022/04/17 01:35:20;;;;;;;71.03;51.23;;;3.30;72.50;;;;;;4976770;28;20257;-88
2022/04/17 01:37:49;;;;;;;70.30;51.57;;;3.30;72.70;;;;;;4976762;28;20174;-88
2022/04/17 01:40:15;;;;;;;71.97;50.23;;;3.30;73.00;;;;;;4976460;28;20202;-88
2022/04/17 01:42:41;;;;;;;70.37;50.60;;;3.30;73.00;;;;;;4976597;28;20228;-88
2022/04/17 01:45:07;;;;;;;70.57;48.93;;;3.30;72.90;;;;;;4976552;28;20193;-88
2022/04/17 01:47:32;;;;;;;72.33;52.30;;;3.20;72.80;;;;;;4976559;28;20554;-88
2022/04/17 01:49:58;;;;;;;72.53;51.53;;;3.20;73.40;;;;;;4976268;28;20217;-88
2022/04/17 01:52:25;;;;;;;63.63;46.63;;;3.10;73.80;;;;;;4993869;28;20208;-88
2022/04/17 01:54:51;;;;;;;71.80;47.10;;;3.10;74.00;;;;;;4993878;28;20249;-88
2022/04/17 01:57:17;;;;;;;65.13;47.90;;;3.10;74.20;;;;;;4976438;28;20209;-88
2022/04/17 01:59:43;;;;;;;63.80;45.67;;;3.10;74.00;;;;;;4976257;28;20200;-88
2022/04/17 02:02:08;;;;;;;59.23;42.93;;;3.10;73.90;;;;;;4993801;28;20170;-88
2022/04/17 02:04:35;;;;;;;67.20;46.57;;;3.10;73.90;;;;;;4994037;28;20644;-88
2022/04/17 02:07:03;;;;;;;67.90;46.80;;;3.10;74.30;;;;;;4976428;28;20181;-88
2022/04/17 02:09:28;;;;;;;68.13;46.30;;;3.10;74.80;;;;;;4976602;28;20240;-88
2022/04/17 02:11:54;;;;;;;97.47;56.43;;;3.00;75.00;;;;;;4993780;28;20236;-88
2022/04/17 02:14:20;;;;;;;90.07;54.03;;;3.00;75.00;;;;;;4976319;28;20667;-88
2022/04/17 02:16:46;;;;;;;82.80;48.60;;;2.90;75.20;;;;;;4976176;28;20652;-88
2022/04/17 02:19:12;;;;;;;82.00;49.97;;;2.80;75.30;;;;;;4976283;28;20203;-88
2022/04/17 02:21:37;;;;;;;79.63;44.90;;;2.80;75.50;;;;;;4976977;28;20178;-88
2022/04/17 02:24:04;;;;;;;68.83;43.53;;;2.80;75.60;;;;;;4976262;28;20209;-89
2022/04/17 02:26:30;;;;;;;67.43;44.90;;;2.80;75.80;;;;;;4976217;28;20698;-88
2022/04/17 02:28:57;;;;;;;65.57;41.10;;;2.80;75.70;;;;;;4977193;28;20205;-88
2022/04/17 02:31:23;;;;;;;59.03;43.70;;;2.80;75.60;;;;;;4979979;28;20683;-88
2022/04/17 02:33:50;;;;;;;62.33;43.43;;;2.80;75.60;;;;;;4997429;28;20180;-88
2022/04/17 02:36:16;;;;;;;69.10;44.10;;;2.80;75.90;;;;;;4979934;28;20185;-88
2022/04/17 02:38:41;;;;;;;66.30;43.27;;;2.80;76.10;;;;;;4979872;28;20194;-88
2022/04/17 02:41:07;;;;;;;62.73;42.57;;;2.70;76.30;;;;;;4979856;28;20268;-88
2022/04/17 02:43:32;;;;;;;62.47;41.87;;;2.70;76.30;;;;;;4979734;28;20277;-88
2022/04/17 02:45:58;;;;;;;61.47;42.40;;;2.70;76.10;;;;;;4980000;28;20320;-88
2022/04/17 02:48:23;;;;;;;55.33;40.93;;;2.70;75.90;;;;;;4979564;28;20188;-88
2022/04/17 02:50:49;;;;;;;57.63;41.13;;;2.70;75.60;;;;;;5039360;22;20239;-88
2022/04/17 02:53:16;;;;;;;63.90;41.17;;;2.60;75.30;;;;;;5017349;28;20676;-88
2022/04/17 02:55:42;;;;;;;58.00;40.60;;;2.60;75.30;;;;;;4999758;28;20185;-89
2022/04/17 02:58:10;;;;;;;58.27;39.80;;;2.50;75.60;;;;;;5017392;28;20571;-88
2022/04/17 03:05:36;;;;;;;58.40;39.57;;;2.50;75.90;;;;;;4999582;28;20201;-88
2022/04/17 03:06:08;;;;;;;60.53;39.63;;;2.50;75.50;;;;;;5017192;28;20188;-88
2022/04/17 03:08:34;;;;;;;57.93;41.00;;;2.50;75.40;;;;;;5017377;28;20179;-88
2022/04/17 03:10:59;;;;;;;65.43;41.63;;;2.50;75.10;;;;;;4999430;28;20208;-88
2022/04/17 03:13:25;;;;;;;68.40;43.73;;;2.50;74.80;;;;;;4999314;28;20260;-88
2022/04/17 03:15:50;;;;;;;62.30;43.07;;;2.50;75.10;;;;;;4999403;28;20588;-89
2022/04/17 03:18:16;;;;;;;64.27;44.10;;;2.50;75.80;;;;;;4999360;28;20649;-88
2022/04/17 03:20:41;;;;;;;60.30;40.63;;;2.40;76.20;;;;;;4999219;28;20741;-88
2022/04/17 03:23:07;;;;;;;70.00;44.90;;;2.40;76.60;;;;;;4999310;28;20283;-88
2022/04/17 03:25:32;;;;;;;67.60;44.40;;;2.30;76.60;;;;;;4999566;28;20185;-88
2022/04/17 03:28:00;;;;;;;70.30;43.77;;;2.30;76.40;;;;;;4999213;28;20195;-88
2022/04/17 03:30:25;;;;;;;68.80;46.27;;;2.30;76.20;;;;;;4998928;28;20216;-89
2022/04/17 03:32:51;;;;;;;58.87;45.33;;;2.20;76.30;;;;;;5016668;28;20255;-88
2022/04/17 03:35:18;;;;;;;68.10;45.43;;;2.30;77.20;;;;;;5016525;28;20176;-87
2022/04/17 03:37:43;;;;;;;68.77;47.40;;;2.20;77.80;;;;;;4998834;28;20634;-88
2022/04/17 03:40:13;;;;;;;68.93;44.87;;;2.20;78.20;;;;;;5015702;28;20204;-88
2022/04/17 03:42:40;;;;;;;68.80;45.07;;;2.20;78.40;;;;;;4998955;28;20192;-88
2022/04/17 03:45:07;;;;;;;64.53;45.53;;;2.20;78.60;;;;;;5016372;28;20176;-88
2022/04/17 03:47:33;;;;;;;64.43;46.47;;;2.30;78.80;;;;;;4998699;28;20181;-88
2022/04/17 03:50:00;;;;;;;69.80;45.43;;;2.20;79.00;;;;;;4998355;28;20224;-88
2022/04/17 03:52:26;;;;;;;64.10;44.23;;;2.20;79.20;;;;;;4998954;28;20226;-88
2022/04/17 03:54:52;;;;;;;64.27;44.20;;;2.10;79.50;;;;;;4998580;28;20205;-88
2022/04/17 03:57:17;;;;;;;62.07;43.33;;;1.90;79.90;;;;;;4998650;28;20176;-88
2022/04/17 03:59:43;;;;;;;61.50;42.50;;;1.90;80.70;;;;;;4998512;28;20287;-88
2022/04/17 04:02:08;;;;;;;60.80;43.50;;;2.00;80.90;;;;;;4998359;28;20632;-88
2022/04/17 04:04:35;;;;;;;61.97;43.83;;;2.00;80.70;;;;;;5015696;28;20185;-88
2022/04/17 04:07:01;;;;;;;66.53;43.53;;;2.10;80.70;;;;;;4998499;28;20192;-88
2022/04/17 04:09:26;;;;;;;64.20;43.90;;;2.00;80.70;;;;;;5015606;28;20251;-88
2022/04/17 04:11:52;;;;;;;67.63;45.00;;;2.00;80.60;;;;;;4998181;28;20682;-88
2022/04/17 04:14:17;;;;;;;71.27;46.00;;;2.10;80.60;;;;;;5015711;28;20179;-88
2022/04/17 04:16:43;;;;;;;67.07;46.23;;;2.30;80.60;;;;;;4998339;28;20606;-88
2022/04/17 04:19:10;;;;;;;73.53;43.13;;;2.30;80.30;;;;;;4998173;28;20238;-88
2022/04/17 04:21:47;;;;;;;61.27;39.30;;;2.20;80.20;;;;;;4998082;28;20210;-88
2022/04/17 04:24:14;;;;;;;58.40;40.03;;;2.20;80.20;;;;;;5015833;28;20169;-88
2022/04/17 04:26:42;;;;;;;56.83;37.60;;;2.20;80.00;;;;;;4997939;28;20641;-88
2022/04/17 04:29:07;;;;;;;71.27;43.13;;;2.30;79.60;;;;;;4997616;28;20580;-88
2022/04/17 04:31:33;;;;;;;60.80;41.80;;;2.20;78.90;;;;;;4997761;28;20214;-87
2022/04/17 04:33:58;;;;;;;61.40;41.83;;;2.20;79.20;;;;;;4997721;28;20180;-88
2022/04/17 04:36:24;;;;;;;62.23;42.43;;;2.30;79.50;;;;;;4998016;28;20200;-88
2022/04/17 04:38:49;;;;;;;58.00;41.47;;;2.20;79.60;;;;;;4997908;28;20188;-88
2022/04/17 04:41:15;;;;;;;60.23;41.67;;;2.00;79.70;;;;;;4997698;28;20177;-88
2022/04/17 04:43:40;;;;;;;56.57;41.37;;;1.80;80.30;;;;;;5015326;28;20205;-88
2022/04/17 04:46:06;;;;;;;58.50;39.77;;;1.80;81.00;;;;;;5015523;28;20684;-87
2022/04/17 04:51:16;;;;;;;65.37;42.00;;;1.80;81.30;;;;;;5015013;28;20725;-88
2022/04/17 04:53:42;;;;;;;69.97;45.73;;;1.80;81.50;;;;;;4997290;28;20191;-88
2022/04/17 04:56:08;;;;;;;76.03;48.43;;;1.80;81.60;;;;;;5014904;28;20170;-88
2022/04/17 04:58:34;;;;;;;88.53;50.60;;;1.90;81.70;;;;;;4997402;28;20174;-88
2022/04/17 05:01:00;;;;;;;81.00;50.10;;;1.90;81.80;;;;;;4997107;28;20198;-88
2022/04/17 05:03:26;;;;;;;81.07;48.47;;;2.00;81.60;;;;;;5014738;28;20179;-88
2022/04/17 05:05:52;;;;;;;70.57;46.10;;;2.00;81.60;;;;;;4997191;28;20205;-88
2022/04/17 05:08:21;;;;;;;69.97;45.20;;;2.00;81.60;;;;;;5014619;28;20180;-88
2022/04/17 05:10:47;;;;;;;68.30;43.67;;;2.00;81.60;;;;;;5014603;28;20226;-87
2022/04/17 05:13:13;;;;;;;71.80;42.83;;;2.10;81.70;;;;;;4997007;28;20223;-88
2022/04/17 05:15:39;;;;;;;69.67;43.83;;;2.20;81.70;;;;;;5014782;28;20177;-88
2022/04/17 05:18:05;;;;;;;66.27;42.37;;;2.30;81.60;;;;;;5014466;28;20267;-88
2022/04/17 05:20:32;;;;;;;68.07;42.47;;;2.30;81.60;;;;;;5014693;28;20684;-89
2022/04/17 05:23:03;;;;;;;66.67;43.00;;;2.40;81.60;;;;;;4996833;28;20178;-88
2022/04/17 05:25:30;;;;;;;62.57;41.57;;;2.40;81.70;;;;;;4996945;28;20177;-88
2022/04/17 05:27:56;;;;;;;68.87;42.47;;;2.40;81.90;;;;;;4997186;28;20225;-87
2022/04/17 05:30:21;;;;;;;65.97;43.80;;;2.50;82.20;;;;;;4996592;28;20297;-90
2022/04/17 05:32:47;;;;;;;67.43;43.53;;;2.50;82.40;;;;;;4996799;28;20172;-88
2022/04/17 05:35:12;;;;;;;73.73;44.67;;;2.50;82.60;;;;;;5014996;28;20174;-88
2022/04/17 05:37:38;;;;;;;77.50;46.47;;;2.60;82.90;;;;;;4996918;28;20645;-88
2022/04/17 05:40:04;;;;;;;80.47;46.70;;;2.70;82.90;;;;;;4996909;28;20591;-88
2022/04/17 05:42:30;;;;;;;96.13;50.67;;;2.80;83.00;;;;;;4996733;28;20182;-89
2022/04/17 05:44:56;;;;;;;67.93;43.27;;;2.80;83.10;;;;;;4996839;28;20270;-88
2022/04/17 05:47:21;;;;;;;62.17;42.87;;;3.00;83.30;;;;;;4996857;28;20237;-88
2022/04/17 05:49:47;;;;;;;61.97;42.10;;;3.00;83.40;;;;;;4996403;28;20755;-87
2022/04/17 05:52:13;;;;;;;58.00;40.57;;;3.10;83.40;;;;;;4996793;28;20177;-88
2022/04/17 05:54:43;;;;;;;57.90;39.43;;;3.20;83.50;;;;;;4996782;28;20687;-88
2022/04/17 05:57:10;;;;;;;57.27;38.77;;;3.40;83.80;;;;;;4996676;28;20168;-89
2022/04/17 05:59:39;;;;;;;56.80;39.30;;;3.40;84.10;;;;;;4996377;28;20197;-88
2022/04/17 06:02:05;;;;;;;54.37;36.97;;;3.70;84.70;;;;;;4996356;28;20235;-88
2022/04/17 06:04:30;;;;;;;64.10;38.83;;;3.80;84.80;;;;;;4996186;28;20203;-88
2022/04/17 06:06:56;;;;;;;62.73;38.03;;;4.00;84.60;;;;;;5013919;28;20715;-88
2022/04/17 06:09:22;;;;;;;58.20;37.30;;;4.10;84.40;;;;;;5013790;28;20189;-89
2022/04/17 06:11:47;;;;;;;59.23;36.43;;;4.20;84.00;;;;;;5014274;28;20276;-89
2022/04/17 06:14:13;;;;;;;57.97;35.83;;;4.40;83.80;;;;;;4996388;28;20174;-88
2022/04/17 06:16:39;;;;;;;53.50;35.03;;;4.50;83.50;;;;;;4996200;28;20177;-88
2022/04/17 06:19:05;;;;;;;55.00;34.67;;;4.60;83.40;;;;;;4996273;28;20197;-88
2022/04/17 06:21:31;;;;;;;50.13;33.30;;;4.80;83.00;;;;;;4996269;28;20191;-88
2022/04/17 06:23:56;;;;;;;56.50;34.97;;;5.00;82.50;;;;;;4996297;28;20178;-88
2022/04/17 06:26:22;;;;;;;52.87;31.83;;;5.00;81.50;;;;;;4996971;28;20182;-88
2022/04/17 06:28:47;;;;;;;54.27;35.03;;;5.20;81.00;;;;;;4996102;28;20656;-88
2022/04/17 06:31:13;;;;;;;58.57;34.77;;;5.30;80.50;;;;;;5013842;28;20198;-88
2022/04/17 06:33:39;;;;;;;49.97;31.80;;;5.40;80.30;;;;;;4996180;28;20175;-88
2022/04/17 06:36:05;;;;;;;45.80;29.00;;;5.40;80.20;;;;;;4996163;28;20176;-88
2022/04/17 06:38:31;;;;;;;38.80;26.33;;;5.50;79.90;;;;;;4996297;28;20170;-88
2022/04/17 06:40:57;;;;;;;47.13;27.47;;;5.70;79.30;;;;;;4995928;28;20253;-90
2022/04/17 06:43:22;;;;;;;46.37;26.63;;;5.70;77.90;;;;;;4995942;28;20191;-89
2022/04/17 06:45:48;;;;;;;38.43;25.40;;;5.80;77.50;;;;;;4995724;28;20183;-89
2022/04/17 06:48:19;;;;;;;42.37;26.50;;;5.80;76.30;;;;;;4996094;28;20182;-90
2022/04/17 06:50:46;;;;;;;30.50;21.27;;;6.10;77.10;;;;;;5013328;28;20338;-88
2022/04/17 06:53:11;;;;;;;29.47;20.40;;;6.10;76.30;;;;;;5013470;28;20188;-88
2022/04/17 06:55:38;;;;;;;30.60;18.47;;;6.10;74.60;;;;;;4995846;28;20172;-88
2022/04/17 06:58:04;;;;;;;23.40;15.73;;;6.00;72.20;;;;;;5013425;28;20177;-88
2022/04/17 07:00:30;;;;;;;27.93;16.20;;;6.10;71.40;;;;;;4995854;28;20723;-89
2022/04/17 07:02:55;;;;;;;19.83;14.53;;;6.10;71.30;;;;;;5013370;28;20676;-88
2022/04/17 07:05:21;;;;;;;23.13;14.57;;;6.30;71.80;;;;;;4995694;28;20712;-88
2022/04/17 07:08:00;;;;;;;25.83;15.13;;;6.30;70.30;;;;;;4995727;28;20183;-90
2022/04/17 07:10:27;;;;;;;22.00;14.93;;;6.30;70.10;;;;;;4995612;28;20208;-89
2022/04/17 07:12:53;;;;;;;26.27;14.00;;;6.50;69.20;;;;;;4995751;28;20225;-89
2022/04/17 07:15:24;;;;;;;29.97;17.07;;;6.50;70.10;;;;;;4995980;28;20184;-89
2022/04/17 07:17:50;;;;;;;21.63;11.37;;;6.60;69.60;;;;;;4999089;28;20165;-89
2022/04/17 07:20:16;;;;;;;13.13;8.37;;;6.80;68.30;;;;;;4998892;28;20205;-88
2022/04/17 07:22:42;;;;;;;13.27;7.73;;;6.80;64.80;;;;;;5017013;28;20638;-88
2022/04/17 07:25:09;;;;;;;12.43;7.77;;;7.00;63.30;;;;;;5016728;28;20180;-89
2022/04/17 07:27:45;;;;;;;12.20;8.47;;;7.10;64.30;;;;;;4999056;28;20207;-89
2022/04/17 07:30:17;;;;;;;14.97;7.80;;;7.30;61.30;;;;;;4998698;28;20207;-88
2022/04/17 07:32:46;;;;;;;13.43;8.17;;;7.40;63.20;;;;;;4998808;28;20179;-88
2022/04/17 07:35:13;;;;;;;11.27;7.13;;;7.40;60.60;;;;;;4998984;28;20250;-88
2022/04/17 07:37:39;;;;;;;12.47;7.53;;;7.40;59.60;;;;;;4998736;28;20176;-89
2022/04/17 07:40:15;;;;;;;12.47;8.17;;;7.40;61.70;;;;;;4999678;28;20284;-88
2022/04/17 07:42:42;;;;;;;9.50;6.30;;;7.60;62.80;;;;;;4999098;28;20169;-88
2022/04/17 07:45:08;;;;;;;9.77;6.30;;;7.70;61.20;;;;;;4998735;28;20216;-87
2022/04/17 07:47:34;;;;;;;12.27;7.03;;;7.70;59.70;;;;;;4998575;28;20185;-90
2022/04/17 07:49:59;;;;;;;12.03;7.03;;;7.70;58.60;;;;;;4998536;28;20217;-87
2022/04/17 07:52:25;;;;;;;10.50;6.63;;;7.80;57.50;;;;;;4998775;28;20188;-89
2022/04/17 07:54:50;;;;;;;11.47;6.47;;;7.80;58.90;;;;;;4998751;28;20178;-88
2022/04/17 07:57:16;;;;;;;12.80;6.63;;;7.70;58.60;;;;;;5016597;28;20255;-88
2022/04/17 07:59:42;;;;;;;13.00;6.47;;;7.70;58.90;;;;;;4998600;28;20671;-88
2022/04/17 08:02:28;;;;;;;9.80;5.90;;;7.80;57.00;;;;;;4998709;28;20235;-88
2022/04/17 08:04:54;;;;;;;11.33;5.93;;;8.00;57.50;;;;;;5016467;28;20180;-88
2022/04/17 08:07:19;;;;;;;10.53;6.37;;;8.10;57.00;;;;;;4998612;28;20178;-87
2022/04/17 08:09:45;;;;;;;14.30;7.10;;;8.10;55.40;;;;;;4998484;28;20208;-87
2022/04/17 08:12:11;;;;;;;10.83;6.63;;;8.30;56.80;;;;;;4998361;28;20280;-88
2022/04/17 08:14:37;;;;;;;10.70;7.30;;;8.40;55.00;;;;;;4998596;28;20220;-88
2022/04/17 08:17:02;;;;;;;12.03;6.93;;;8.50;54.50;;;;;;5016126;28;20590;-87
2022/04/17 08:19:29;;;;;;;9.43;6.13;;;8.50;55.70;;;;;;5015711;28;20632;-88
2022/04/17 08:21:55;;;;;;;12.00;6.20;;;8.60;54.00;;;;;;5015954;28;20177;-88
2022/04/17 08:24:21;;;;;;;9.23;6.33;;;8.70;54.00;;;;;;4998235;28;20179;-87
2022/04/17 08:26:47;;;;;;;11.43;5.87;;;8.80;53.90;;;;;;4997762;28;20215;-87
2022/04/17 08:29:12;;;;;;;7.43;4.67;;;8.90;51.10;;;;;;4998063;28;20224;-88
2022/04/17 08:31:38;;;;;;;10.00;6.00;;;8.80;52.50;;;;;;5015300;28;20189;-88
2022/04/17 08:34:03;;;;;;;9.60;6.17;;;9.00;55.50;;;;;;4997712;28;20205;-87
2022/04/17 08:36:29;;;;;;;6.23;5.40;;;9.20;53.10;;;;;;4997943;28;20173;-88
2022/04/17 08:38:54;;;;;;;7.50;5.33;;;9.30;53.30;;;;;;4998228;28;20570;-89
2022/04/17 08:41:21;;;;;;;8.13;5.03;;;9.50;51.70;;;;;;4998108;28;20196;-89
2022/04/17 08:43:47;;;;;;;12.47;6.00;;;9.50;52.10;;;;;;5015220;28;20174;-88
2022/04/17 08:46:13;;;;;;;10.47;5.40;;;9.60;48.70;;;;;;4997754;28;20188;-89
2022/04/17 08:48:38;;;;;;;10.20;5.40;;;9.80;49.80;;;;;;4997751;28;20199;-87
2022/04/17 08:51:07;;;;;;;10.10;5.57;;;9.90;51.90;;;;;;5015021;28;20266;-89
2022/04/17 08:53:34;;;;;;;7.07;5.07;;;10.10;51.60;;;;;;4997652;28;20188;-89
2022/04/17 08:56:00;;;;;;;7.30;4.77;;;10.30;48.40;;;;;;4997359;28;20188;-88
2022/04/17 08:58:26;;;;;;;8.23;5.57;;;10.20;49.10;;;;;;4997374;28;20635;-89
2022/04/17 09:00:52;;;;;;;9.87;5.80;;;10.50;49.90;;;;;;5014962;28;20272;-88
2022/04/17 09:03:17;;;;;;;10.50;4.80;;;10.70;49.00;;;;;;4997328;28;20216;-87
2022/04/17 09:05:43;;;;;;;6.83;4.23;;;10.70;46.70;;;;;;5014851;28;20184;-88
2022/04/17 09:08:21;;;;;;;4.93;3.97;;;10.90;48.40;;;;;;4997329;28;20178;-88
2022/04/17 09:10:58;;;;;;;8.17;4.67;;;10.90;47.50;;;;;;4997003;28;20299;-88
2022/04/17 09:13:32;;;;;;;6.73;4.00;;;11.00;47.20;;;;;;4997507;28;20192;-88
2022/04/17 09:15:58;;;;;;;6.23;4.20;;;10.90;44.90;;;;;;5014922;28;20173;-88
2022/04/17 09:18:27;;;;;;;5.43;4.30;;;11.00;43.90;;;;;;4996997;28;20181;-88
2022/04/17 09:20:52;;;;;;;6.53;4.27;;;11.20;46.70;;;;;;4997113;28;20293;-87
2022/04/17 09:23:38;;;;;;;7.13;4.30;;;11.40;45.80;;;;;;4997095;28;20272;-87
2022/04/17 09:26:07;;;;;;;6.30;4.10;;;11.50;45.80;;;;;;5014488;28;20180;-87
2022/04/17 09:28:40;;;;;;;3.90;3.30;;;11.50;43.20;;;;;;4996949;28;20648;-87
2022/04/17 09:31:10;;;;;;;6.53;3.50;;;11.50;45.00;;;;;;5015109;28;20204;-87
2022/04/17 09:33:37;;;;;;;4.67;3.30;;;11.70;40.00;;;;;;4996508;28;20178;-88
2022/04/17 09:36:04;;;;;;;5.40;3.00;;;11.70;42.10;;;;;;5020074;23;20228;-89
2022/04/17 09:38:32;;;;;;;7.43;3.40;;;11.80;42.80;;;;;;5012950;28;20226;-89
2022/04/17 09:41:17;;;;;;;5.13;3.03;;;12.00;40.60;;;;;;4996253;28;20181;-89
2022/04/17 09:43:43;;;;;;;9.20;3.20;;;11.90;40.80;;;;;;4997009;28;20168;-89
2022/04/17 09:46:10;;;;;;;9.33;2.97;;;12.10;39.80;;;;;;4978253;28;20197;-89
2022/04/17 09:48:36;;;;;;;4.97;2.50;;;12.10;41.20;;;;;;4976958;28;20219;-89
2022/04/17 09:51:25;;;;;;;4.23;2.40;;;12.20;39.70;;;;;;4994206;28;20285;-90
2022/04/17 09:54:00;;;;;;;3.33;2.20;;;12.20;39.30;;;;;;4993993;28;20170;-90
2022/04/17 09:56:39;;;;;;;4.60;2.17;;;12.30;39.50;;;;;;4976463;28;20201;-90
2022/04/17 09:59:23;;;;;;;2.77;2.27;;;12.40;39.00;;;;;;4976964;28;20181;-90
2022/04/17 10:01:54;;;;;;;3.27;2.30;;;12.50;36.40;;;;;;4993922;28;20160;-89
2022/04/17 10:04:20;;;;;;;4.23;2.30;;;12.70;37.50;;;;;;4994038;28;20190;-90
2022/04/17 10:06:54;;;;;;;7.90;2.77;;;12.90;39.00;;;;;;4976501;28;20198;-91
2022/04/17 10:09:20;;;;;;;3.93;2.50;;;13.00;37.10;;;;;;4976437;28;20183;-89
2022/04/17 10:11:46;;;;;;;3.93;2.20;;;13.00;37.60;;;;;;4977328;28;20201;-90
2022/04/17 10:14:13;;;;;;;3.43;2.50;;;13.00;34.90;;;;;;4976287;28;20668;-89
2022/04/17 10:16:43;;;;;;;3.13;2.10;;;13.30;37.70;;;;;;4976324;28;20201;-89
2022/04/17 10:19:14;;;;;;;3.40;2.17;;;13.60;34.20;;;;;;4993789;28;20174;-90
2022/04/17 10:21:40;;;;;;;3.83;2.30;;;13.80;36.10;;;;;;4976312;28;20650;-90
2022/04/17 10:24:09;;;;;;;4.53;2.20;;;14.00;35.90;;;;;;4994167;28;20177;-90
2022/04/17 10:26:43;;;;;;;6.43;2.73;;;14.00;34.00;;;;;;4976421;28;20606;-91
2022/04/17 10:29:13;;;;;;;3.70;2.27;;;13.80;36.00;;;;;;4977117;28;20162;-90
2022/04/17 10:32:05;;;;;;;8.10;4.30;;;14.10;31.90;;;;;;4993783;28;20205;-90
2022/04/17 10:34:53;;;;;;;6.90;2.30;;;13.80;32.10;;;;;;4975988;28;20264;-89
2022/04/17 10:37:57;;;;;;;3.73;2.30;;;14.10;36.20;;;;;;4976610;28;20166;-89
2022/04/17 10:40:23;;;;;;;2.40;1.93;;;14.20;33.30;;;;;;4976173;28;20178;-90
2022/04/17 10:42:59;;;;;;;4.73;2.53;;;13.70;35.40;;;;;;4993468;28;20245;-90
2022/04/17 10:45:25;;;;;;;2.70;1.90;;;14.00;34.60;;;;;;4976931;28;20551;-91
2022/04/17 10:48:27;;;;;;;3.60;2.20;;;14.50;32.70;;;;;;4976408;28;20209;-90
2022/04/17 10:50:53;;;;;;;5.40;2.23;;;14.30;33.00;;;;;;4959230;28;20215;-90
2022/04/17 10:53:31;;;;;;;3.63;1.97;;;14.20;34.60;;;;;;4980442;28;20265;-93
2022/04/17 10:56:04;;;;;;;1.73;1.63;;;14.40;30.90;;;;;;4995148;28;20201;-92
2022/04/17 10:58:42;;;;;;;2.63;1.80;;;14.50;31.90;;;;;;4990043;28;20245;-91
2022/04/17 11:01:13;;;;;;;2.10;1.50;;;14.60;32.70;;;;;;4997554;28;20178;-93
2022/04/17 11:03:49;;;;;;;6.30;2.10;;;14.50;32.20;;;;;;4992106;28;20198;-92
2022/04/17 11:06:31;;;;;;;4.17;1.90;;;14.30;34.30;;;;;;4985598;28;20273;-92
2022/04/17 11:09:15;;;;;;;3.40;2.07;;;14.40;34.20;;;;;;4985721;28;20185;-93
2022/04/17 11:11:45;;;;;;;4.67;2.13;;;14.80;36.90;;;;;;4989183;28;20197;-92
2022/04/17 11:14:13;;;;;;;4.43;2.03;;;14.80;34.10;;;;;;4987766;28;20146;-92
2022/04/17 11:16:45;;;;;;;4.13;2.20;;;14.40;34.70;;;;;;4995581;28;20265;-92
2022/04/17 11:19:16;;;;;;;2.73;1.83;;;14.50;33.70;;;;;;4998707;28;20198;-92
2022/04/17 11:21:47;;;;;;;4.30;2.50;;;14.60;34.80;;;;;;4982417;28;20624;-91
2022/04/17 11:24:13;;;;;;;4.73;2.53;;;14.60;35.00;;;;;;4982732;28;20233;-91
2022/04/17 11:26:54;;;;;;;5.83;2.43;;;14.50;33.50;;;;;;4983305;28;20186;-92
2022/04/17 11:29:48;;;;;;;5.67;2.20;;;14.80;32.70;;;;;;4985749;28;20190;-92
2022/04/17 11:32:17;;;;;;;4.40;2.30;;;15.00;35.20;;;;;;4983595;28;20228;-92
2022/04/17 11:34:47;;;;;;;4.20;2.13;;;15.20;35.10;;;;;;4983114;28;20217;-92
2022/04/17 11:37:16;;;;;;;3.47;2.03;;;15.50;31.30;;;;;;5000014;28;20180;-92
2022/04/17 11:39:42;;;;;;;4.10;2.43;;;15.10;34.80;;;;;;4985931;28;20182;-92
2022/04/17 11:42:09;;;;;;;3.10;2.30;;;15.40;30.60;;;;;;4988082;28;20676;-92
2022/04/17 11:44:36;;;;;;;3.10;2.30;;;15.70;32.70;;;;;;4995463;28;20262;-93
2022/04/17 11:47:02;;;;;;;3.30;2.33;;;15.70;31.10;;;;;;4984563;28;20205;-92
2022/04/17 11:49:32;;;;;;;4.10;2.55;;;15.40;34.30;;;;;;4982267;28;20233;-92
2022/04/17 11:52:17;;;;;;;3.67;2.53;;;15.50;32.10;;;;;;4979240;28;20683;-93
2022/04/17 11:54:44;;;;;;;2.67;2.17;;;15.80;31.20;;;;;;4979964;28;20200;-93
2022/04/17 11:57:14;;;;;;;5.43;2.22;;;15.80;32.50;;;;;;4982305;28;20185;-93
2022/04/17 12:00:00;;;;;;;4.50;2.35;;;16.00;33.60;;;;;;4979054;28;20170;-94
2022/04/17 12:02:28;;;;;;;3.50;2.92;;;16.30;31.10;;;;;;4978256;28;20221;-94
2022/04/17 12:05:04;;;;;;;5.40;2.47;;;16.40;31.70;;;;;;4978892;28;20340;-93
2022/04/17 12:07:30;;;;;;;4.80;2.13;;;16.20;33.20;;;;;;4979439;28;20181;-94
2022/04/17 12:10:05;;;;;;;3.50;2.22;;;16.50;32.60;;;;;;4979642;28;20190;-94
2022/04/17 12:13:28;;;;;;;4.40;2.35;;;16.70;30.80;;;;;;4979310;28;20182;-93
2022/04/17 12:16:04;;;;;;;3.42;2.33;;;16.70;29.80;;;;;;4980010;28;20198;-94
2022/04/17 12:18:30;;;;;;;5.18;2.55;;;17.10;28.20;;;;;;4979914;28;20260;-94
2022/04/17 12:20:58;;;;;;;6.22;2.22;;;16.90;32.40;;;;;;4978934;28;20170;-94
2022/04/17 12:23:24;;;;;;;3.45;2.78;;;17.00;30.90;;;;;;4979127;28;20178;-94
2022/04/17 12:25:50;;;;;;;5.78;2.67;;;17.20;30.40;;;;;;4979295;28;20202;-94
2022/04/17 12:28:16;;;;;;;5.35;3.17;;;16.90;31.40;;;;;;4979078;28;20205;-93
2022/04/17 12:30:42;;;;;;;5.40;3.70;;;16.80;32.80;;;;;;4978821;28;20233;-94
2022/04/17 12:33:26;;;;;;;4.85;2.63;;;17.10;30.40;;;;;;4979082;28;20178;-94
2022/04/17 12:36:07;;;;;;;4.07;2.42;;;17.20;27.40;;;;;;4978970;28;20214;-94
2022/04/17 12:38:34;;;;;;;4.07;2.30;;;17.20;28.60;;;;;;4980840;28;20257;-95
2022/04/17 12:40:59;;;;;;;6.07;2.85;;;17.20;29.20;;;;;;4979650;28;20212;-94
2022/04/17 12:43:30;;;;;;;7.03;2.63;;;16.90;29.10;;;;;;4979086;28;20181;-94
2022/04/17 12:46:01;;;;;;;4.88;2.70;;;16.80;28.00;;;;;;4979382;28;20205;-94
2022/04/17 12:48:35;;;;;;;3.78;2.20;;;17.20;26.80;;;;;;4980093;28;20186;-94
2022/04/17 12:51:03;;;;;;;3.65;2.35;;;17.70;29.50;;;;;;4980876;28;20707;-94
2022/04/17 12:53:43;;;;;;;6.38;2.33;;;18.00;26.30;;;;;;4980275;28;20174;-94
2022/04/17 12:56:10;;;;;;;4.70;2.40;;;17.50;28.70;;;;;;4980772;28;20288;-94